sensor_id;sensor_type;location;lat;lon;timestamp;pressure;altitude;pressure_sealevel;temperature;humidity
75717;BME280;64333;50.138;14.332;2022-10-20T00:00:57;99108.97;;;3.90;98.08
75717;BME280;64333;50.138;14.332;2022-10-20T00:03:24;99106.44;;;3.86;98.16
75717;BME280;64333;50.138;14.332;2022-10-20T00:05:50;99103.88;;;3.75;97.63
75717;BME280;64333;50.138;14.332;2022-10-20T00:08:15;99100.56;;;3.64;97.88
75717;BME280;64333;50.138;14.332;2022-10-20T00:10:41;99099.75;;;3.49;98.86
75717;BME280;64333;50.138;14.332;2022-10-20T00:13:06;99103.16;;;3.39;99.80
75717;BME280;64333;50.138;14.332;2022-10-20T00:15:32;99119.31;;;3.50;99.86
75717;BME280;64333;50.138;14.332;2022-10-20T00:17:57;99109.97;;;3.46;99.03
75717;BME280;64333;50.138;14.332;2022-10-20T00:20:23;99111.66;;;3.50;99.94
75717;BME280;64333;50.138;14.332;2022-10-20T00:22:48;99111.63;;;3.54;100.00
75717;BME280;64333;50.138;14.332;2022-10-20T00:25:14;99096.31;;;3.62;100.00
75717;BME280;64333;50.138;14.332;2022-10-20T00:27:39;99091.19;;;3.63;100.00
75717;BME280;64333;50.138;14.332;2022-10-20T00:30:05;99090.34;;;3.58;100.00
75717;BME280;64333;50.138;14.332;2022-10-20T00:32:30;99097.13;;;3.64;99.83
75717;BME280;64333;50.138;14.332;2022-10-20T00:34:56;99099.72;;;3.62;100.00
75717;BME280;64333;50.138;14.332;2022-10-20T00:37:21;99096.28;;;3.69;100.00
75717;BME280;64333;50.138;14.332;2022-10-20T00:39:47;99094.56;;;3.68;100.00
75717;BME280;64333;50.138;14.332;2022-10-20T00:42:17;99086.06;;;3.65;100.00
75717;BME280;64333;50.138;14.332;2022-10-20T00:44:55;99081.84;;;3.56;100.00
75717;BME280;64333;50.138;14.332;2022-10-20T00:47:25;99075.03;;;3.51;100.00
75717;BME280;64333;50.138;14.332;2022-10-20T00:49:59;99075.03;;;3.55;100.00
75717;BME280;64333;50.138;14.332;2022-10-20T00:52:26;99081.03;;;3.45;100.00
75717;BME280;64333;50.138;14.332;2022-10-20T00:54:52;99073.38;;;3.47;100.00
75717;BME280;64333;50.138;14.332;2022-10-20T00:57:17;99070.81;;;3.51;100.00
75717;BME280;64333;50.138;14.332;2022-10-20T00:59:43;99069.94;;;3.45;100.00
75717;BME280;64333;50.138;14.332;2022-10-20T01:02:09;99069.97;;;3.43;100.00
75717;BME280;64333;50.138;14.332;2022-10-20T01:04:35;99075.09;;;3.37;100.00
75717;BME280;64333;50.138;14.332;2022-10-20T01:07:01;99071.72;;;3.32;100.00
75717;BME280;64333;50.138;14.332;2022-10-20T01:09:27;99070.88;;;3.24;100.00
75717;BME280;64333;50.138;14.332;2022-10-20T01:17:56;99068.38;;;3.00;100.00
75717;BME280;64333;50.138;14.332;2022-10-20T01:28:36;99042.88;;;2.85;100.00
75717;BME280;64333;50.138;14.332;2022-10-20T01:31:20;99044.59;;;2.88;100.00
75717;BME280;64333;50.138;14.332;2022-10-20T01:34:05;99042.06;;;2.76;100.00
75717;BME280;64333;50.138;14.332;2022-10-20T01:36:39;99035.28;;;2.66;100.00
75717;BME280;64333;50.138;14.332;2022-10-20T01:39:14;99021.66;;;2.65;100.00
75717;BME280;64333;50.138;14.332;2022-10-20T01:41:54;99036.94;;;2.76;100.00
75717;BME280;64333;50.138;14.332;2022-10-20T01:44:25;99036.97;;;2.61;100.00
75717;BME280;64333;50.138;14.332;2022-10-20T01:46:51;99027.63;;;2.64;100.00
75717;BME280;64333;50.138;14.332;2022-10-20T01:49:18;99034.34;;;3.04;100.00
75717;BME280;64333;50.138;14.332;2022-10-20T01:51:43;99027.53;;;3.11;100.00
75717;BME280;64333;50.138;14.332;2022-10-20T01:57:07;99014.75;;;3.18;100.00
75717;BME280;64333;50.138;14.332;2022-10-20T02:02:34;99002.88;;;2.98;100.00
75717;BME280;64333;50.138;14.332;2022-10-20T02:08:02;99015.66;;;2.95;100.00
75717;BME280;64333;50.138;14.332;2022-10-20T02:10:39;99013.09;;;2.92;100.00
75717;BME280;64333;50.138;14.332;2022-10-20T02:13:07;99002.09;;;2.76;100.00
75717;BME280;64333;50.138;14.332;2022-10-20T02:15:36;99009.75;;;2.73;100.00
75717;BME280;64333;50.138;14.332;2022-10-20T02:18:06;98997.84;;;2.75;100.00
75717;BME280;64333;50.138;14.332;2022-10-20T02:20:33;99011.47;;;2.71;100.00
75717;BME280;64333;50.138;14.332;2022-10-20T02:23:02;98998.72;;;2.65;100.00
75717;BME280;64333;50.138;14.332;2022-10-20T02:25:29;99005.50;;;2.78;100.00
75717;BME280;64333;50.138;14.332;2022-10-20T02:27:56;99001.22;;;2.85;100.00
75717;BME280;64333;50.138;14.332;2022-10-20T02:30:22;98999.53;;;2.93;100.00
75717;BME280;64333;50.138;14.332;2022-10-20T02:32:50;98996.97;;;2.91;100.00
75717;BME280;64333;50.138;14.332;2022-10-20T02:35:25;98993.63;;;2.73;100.00
75717;BME280;64333;50.138;14.332;2022-10-20T02:37:51;99000.38;;;2.84;100.00
75717;BME280;64333;50.138;14.332;2022-10-20T02:40:16;99002.94;;;2.78;100.00
75717;BME280;64333;50.138;14.332;2022-10-20T02:42:42;98996.16;;;2.71;100.00
75717;BME280;64333;50.138;14.332;2022-10-20T02:45:08;99009.75;;;2.67;100.00
75717;BME280;64333;50.138;14.332;2022-10-20T02:47:34;98994.47;;;2.60;100.00
75717;BME280;64333;50.138;14.332;2022-10-20T02:49:59;98998.72;;;2.52;100.00
75717;BME280;64333;50.138;14.332;2022-10-20T02:52:26;98999.56;;;2.45;100.00
75717;BME280;64333;50.138;14.332;2022-10-20T02:54:52;98973.25;;;2.22;100.00
75717;BME280;64333;50.138;14.332;2022-10-20T02:57:17;98996.19;;;2.34;100.00
75717;BME280;64333;50.138;14.332;2022-10-20T02:59:43;98993.66;;;2.29;100.00
75717;BME280;64333;50.138;14.332;2022-10-20T03:02:08;98986.81;;;2.28;100.00
75717;BME280;64333;50.138;14.332;2022-10-20T03:04:33;98992.78;;;2.27;100.00
75717;BME280;64333;50.138;14.332;2022-10-20T03:06:59;98987.69;;;2.23;100.00
75717;BME280;64333;50.138;14.332;2022-10-20T03:09:24;98987.69;;;2.20;100.00
75717;BME280;64333;50.138;14.332;2022-10-20T03:11:49;98985.13;;;2.21;100.00
75717;BME280;64333;50.138;14.332;2022-10-20T03:14:15;98991.09;;;2.22;100.00
75717;BME280;64333;50.138;14.332;2022-10-20T03:16:40;98994.50;;;2.49;100.00
75717;BME280;64333;50.138;14.332;2022-10-20T03:19:06;98985.03;;;2.99;100.00
75717;BME280;64333;50.138;14.332;2022-10-20T03:21:31;98991.81;;;3.06;100.00
75717;BME280;64333;50.138;14.332;2022-10-20T03:23:56;98980.72;;;3.13;100.00
75717;BME280;64333;50.138;14.332;2022-10-20T03:26:22;98983.25;;;3.19;100.00
75717;BME280;64333;50.138;14.332;2022-10-20T03:28:47;98979.91;;;3.02;100.00
75717;BME280;64333;50.138;14.332;2022-10-20T03:31:12;98985.00;;;3.08;100.00
75717;BME280;64333;50.138;14.332;2022-10-20T03:33:38;98977.38;;;3.05;100.00
75717;BME280;64333;50.138;14.332;2022-10-20T03:36:03;98967.16;;;3.02;100.00
75717;BME280;64333;50.138;14.332;2022-10-20T03:38:29;98973.94;;;3.06;100.00
75717;BME280;64333;50.138;14.332;2022-10-20T03:40:54;98976.59;;;2.81;100.00
75717;BME280;64333;50.138;14.332;2022-10-20T03:43:20;98972.34;;;2.71;100.00
75717;BME280;64333;50.138;14.332;2022-10-20T03:45:45;98968.06;;;2.82;100.00
75717;BME280;64333;50.138;14.332;2022-10-20T03:48:11;98968.09;;;2.77;100.00
75717;BME280;64333;50.138;14.332;2022-10-20T03:50:38;98974.88;;;2.81;100.00
75717;BME280;64333;50.138;14.332;2022-10-20T03:53:04;98977.41;;;2.81;100.00
75717;BME280;64333;50.138;14.332;2022-10-20T03:55:29;98968.88;;;2.94;100.00
75717;BME280;64333;50.138;14.332;2022-10-20T03:57:56;98971.44;;;2.90;100.00
75717;BME280;64333;50.138;14.332;2022-10-20T04:00:21;98964.56;;;3.08;100.00
75717;BME280;64333;50.138;14.332;2022-10-20T04:02:47;98956.06;;;3.12;100.00
75717;BME280;64333;50.138;14.332;2022-10-20T04:05:14;98969.66;;;3.14;100.00
75717;BME280;64333;50.138;14.332;2022-10-20T04:07:41;98968.00;;;3.07;100.00
75717;BME280;64333;50.138;14.332;2022-10-20T04:10:07;98966.34;;;2.82;100.00
75717;BME280;64333;50.138;14.332;2022-10-20T04:12:33;98970.66;;;2.67;100.00
75717;BME280;64333;50.138;14.332;2022-10-20T04:14:58;98958.78;;;2.60;100.00
75717;BME280;64333;50.138;14.332;2022-10-20T04:17:23;98958.78;;;2.54;100.00
75717;BME280;64333;50.138;14.332;2022-10-20T04:19:49;98957.09;;;2.42;100.00
75717;BME280;64333;50.138;14.332;2022-10-20T04:22:15;98957.94;;;2.44;100.00
75717;BME280;64333;50.138;14.332;2022-10-20T04:24:40;98950.28;;;2.41;100.00
75717;BME280;64333;50.138;14.332;2022-10-20T04:27:05;98969.81;;;2.48;100.00
75717;BME280;64333;50.138;14.332;2022-10-20T04:29:31;98962.19;;;2.41;100.00
75717;BME280;64333;50.138;14.332;2022-10-20T04:31:57;98963.91;;;2.22;100.00
75717;BME280;64333;50.138;14.332;2022-10-20T04:34:22;98962.19;;;2.21;100.00
75717;BME280;64333;50.138;14.332;2022-10-20T04:36:47;98956.28;;;2.16;100.00
75717;BME280;64333;50.138;14.332;2022-10-20T04:39:13;98948.63;;;2.19;100.00
75717;BME280;64333;50.138;14.332;2022-10-20T04:41:39;98948.63;;;2.24;100.00
75717;BME280;64333;50.138;14.332;2022-10-20T04:44:04;98950.31;;;2.28;100.00
75717;BME280;64333;50.138;14.332;2022-10-20T04:46:29;98951.16;;;2.37;100.00
75717;BME280;64333;50.138;14.332;2022-10-20T04:48:55;98942.63;;;2.46;100.00
75717;BME280;64333;50.138;14.332;2022-10-20T04:51:21;98935.00;;;2.55;100.00
75717;BME280;64333;50.138;14.332;2022-10-20T04:53:46;98938.38;;;2.70;100.00
75717;BME280;64333;50.138;14.332;2022-10-20T04:56:14;98927.28;;;2.68;100.00
75717;BME280;64333;50.138;14.332;2022-10-20T04:58:51;98928.16;;;2.76;100.00
75717;BME280;64333;50.138;14.332;2022-10-20T05:01:17;98927.28;;;2.83;100.00
75717;BME280;64333;50.138;14.332;2022-10-20T05:03:43;98927.25;;;2.88;100.00
75717;BME280;64333;50.138;14.332;2022-10-20T05:08:38;98921.28;;;2.93;100.00
75717;BME280;64333;50.138;14.332;2022-10-20T05:11:04;98912.78;;;2.88;100.00
75717;BME280;64333;50.138;14.332;2022-10-20T05:13:29;98910.22;;;2.91;100.00
75717;BME280;64333;50.138;14.332;2022-10-20T05:15:54;98916.22;;;2.84;100.00
75717;BME280;64333;50.138;14.332;2022-10-20T05:18:20;98906.88;;;2.77;100.00
75717;BME280;64333;50.138;14.332;2022-10-20T05:20:45;98913.66;;;2.81;100.00
75717;BME280;64333;50.138;14.332;2022-10-20T05:23:11;98906.88;;;2.77;100.00
75717;BME280;64333;50.138;14.332;2022-10-20T05:25:37;98898.44;;;2.63;100.00
75717;BME280;64333;50.138;14.332;2022-10-20T05:28:03;98917.13;;;2.64;100.00
75717;BME280;64333;50.138;14.332;2022-10-20T05:30:28;98912.00;;;2.70;100.00
75717;BME280;64333;50.138;14.332;2022-10-20T05:32:54;98922.22;;;2.73;100.00
75717;BME280;64333;50.138;14.332;2022-10-20T05:35:19;98932.41;;;2.71;100.00
75717;BME280;64333;50.138;14.332;2022-10-20T05:37:45;98921.34;;;2.72;100.00
75717;BME280;64333;50.138;14.332;2022-10-20T05:40:10;98922.19;;;2.74;100.00
75717;BME280;64333;50.138;14.332;2022-10-20T05:42:36;98902.66;;;2.67;100.00
75717;BME280;64333;50.138;14.332;2022-10-20T05:45:02;98915.41;;;2.67;100.00
75717;BME280;64333;50.138;14.332;2022-10-20T05:47:27;98919.66;;;2.71;100.00
75717;BME280;64333;50.138;14.332;2022-10-20T05:49:53;98925.59;;;2.70;100.00
75717;BME280;64333;50.138;14.332;2022-10-20T05:52:18;98923.03;;;2.72;100.00
75717;BME280;64333;50.138;14.332;2022-10-20T05:54:44;98909.44;;;2.68;100.00
75717;BME280;64333;50.138;14.332;2022-10-20T05:57:09;98931.53;;;2.80;100.00
75717;BME280;64333;50.138;14.332;2022-10-20T05:59:35;98925.56;;;2.79;100.00
75717;BME280;64333;50.138;14.332;2022-10-20T06:02:00;98934.03;;;2.93;100.00
75717;BME280;64333;50.138;14.332;2022-10-20T06:04:26;98932.28;;;3.01;100.00
75717;BME280;64333;50.138;14.332;2022-10-20T06:06:52;98943.34;;;3.05;100.00
75717;BME280;64333;50.138;14.332;2022-10-20T06:09:19;98940.75;;;3.11;100.00
75717;BME280;64333;50.138;14.332;2022-10-20T06:11:45;98929.69;;;3.15;100.00
75717;BME280;64333;50.138;14.332;2022-10-20T06:14:11;98930.53;;;3.20;100.00
75717;BME280;64333;50.138;14.332;2022-10-20T06:16:37;98937.25;;;3.34;100.00
75717;BME280;64333;50.138;14.332;2022-10-20T06:19:03;98944.03;;;3.43;100.00
75717;BME280;64333;50.138;14.332;2022-10-20T06:21:30;98945.66;;;3.54;100.00
75717;BME280;64333;50.138;14.332;2022-10-20T06:24:00;98938.78;;;3.65;100.00
75717;BME280;64333;50.138;14.332;2022-10-20T06:26:27;98944.72;;;3.70;100.00
75717;BME280;64333;50.138;14.332;2022-10-20T06:29:00;98947.19;;;3.79;100.00
75717;BME280;64333;50.138;14.332;2022-10-20T06:31:28;98940.28;;;3.93;100.00
75717;BME280;64333;50.138;14.332;2022-10-20T06:33:55;98946.94;;;4.15;100.00
75717;BME280;64333;50.138;14.332;2022-10-20T06:36:21;98956.28;;;4.21;98.85
75717;BME280;64333;50.138;14.332;2022-10-20T06:38:47;98960.53;;;4.23;98.78
75717;BME280;64333;50.138;14.332;2022-10-20T06:41:15;98952.91;;;4.16;96.06
75717;BME280;64333;50.138;14.332;2022-10-20T06:43:42;98955.44;;;4.19;98.07
75717;BME280;64333;50.138;14.332;2022-10-20T06:46:11;98952.72;;;4.35;97.81
75717;BME280;64333;50.138;14.332;2022-10-20T06:48:37;98963.66;;;4.55;94.85
75717;BME280;64333;50.138;14.332;2022-10-20T06:51:05;98955.47;;;5.00;94.75
75717;BME280;64333;50.138;14.332;2022-10-20T06:53:30;98955.88;;;5.38;94.10
75717;BME280;64333;50.138;14.332;2022-10-20T06:56:00;98949.38;;;5.79;90.57
75717;BME280;64333;50.138;14.332;2022-10-20T06:58:26;98963.56;;;6.01;89.88
75717;BME280;64333;50.138;14.332;2022-10-20T07:01:06;98951.28;;;6.21;89.02
75717;BME280;64333;50.138;14.332;2022-10-20T07:03:34;98962.34;;;6.25;87.40
75717;BME280;64333;50.138;14.332;2022-10-20T07:06:00;98972.59;;;6.23;89.01
75717;BME280;64333;50.138;14.332;2022-10-20T07:08:27;98973.66;;;6.12;86.98
75717;BME280;64333;50.138;14.332;2022-10-20T07:11:05;98965.41;;;6.45;86.89
75717;BME280;64333;50.138;14.332;2022-10-20T07:13:31;98974.53;;;6.61;85.48
75717;BME280;64333;50.138;14.332;2022-10-20T07:15:58;98969.19;;;6.74;85.16
75717;BME280;64333;50.138;14.332;2022-10-20T07:18:25;98984.28;;;6.91;82.70
75717;BME280;64333;50.138;14.332;2022-10-20T07:20:51;98973.63;;;7.10;84.70
75717;BME280;64333;50.138;14.332;2022-10-20T07:23:16;98978.41;;;7.30;81.78
75717;BME280;64333;50.138;14.332;2022-10-20T07:25:42;98966.78;;;7.53;79.40
75717;BME280;64333;50.138;14.332;2022-10-20T07:28:08;98976.56;;;7.76;80.44
75717;BME280;64333;50.138;14.332;2022-10-20T07:30:38;98975.34;;;7.92;76.82
75717;BME280;64333;50.138;14.332;2022-10-20T07:33:04;98966.03;;;7.88;77.89
75717;BME280;64333;50.138;14.332;2022-10-20T07:35:29;98970.53;;;7.78;77.33
75717;BME280;64333;50.138;14.332;2022-10-20T07:37:55;98968.81;;;8.14;76.39
75717;BME280;64333;50.138;14.332;2022-10-20T07:40:20;98975.25;;;8.34;75.95
75717;BME280;64333;50.138;14.332;2022-10-20T07:42:45;98970.94;;;8.68;77.13
75717;BME280;64333;50.138;14.332;2022-10-20T07:45:11;98976.69;;;9.11;72.64
75717;BME280;64333;50.138;14.332;2022-10-20T07:47:36;98973.53;;;9.61;70.95
75717;BME280;64333;50.138;14.332;2022-10-20T07:50:02;98980.94;;;10.01;70.37
75717;BME280;64333;50.138;14.332;2022-10-20T07:52:27;98978.28;;;10.04;68.57
75717;BME280;64333;50.138;14.332;2022-10-20T07:54:55;98962.81;;;9.75;69.99
75717;BME280;64333;50.138;14.332;2022-10-20T07:57:21;98958.47;;;10.82;67.67
75717;BME280;64333;50.138;14.332;2022-10-20T07:59:47;98960.94;;;10.87;67.13
75717;BME280;64333;50.138;14.332;2022-10-20T08:02:12;98968.50;;;10.41;66.84
75717;BME280;64333;50.138;14.332;2022-10-20T08:04:40;98970.00;;;10.48;65.92
75717;BME280;64333;50.138;14.332;2022-10-20T08:07:05;98964.13;;;10.43;66.75
75717;BME280;64333;50.138;14.332;2022-10-20T08:09:31;98969.69;;;9.74;67.43
75717;BME280;64333;50.138;14.332;2022-10-20T08:11:56;98973.38;;;10.50;66.08
75717;BME280;64333;50.138;14.332;2022-10-20T08:14:23;98967.06;;;11.07;63.98
75717;BME280;64333;50.138;14.332;2022-10-20T08:16:51;98969.16;;;11.68;61.05
75717;BME280;64333;50.138;14.332;2022-10-20T08:19:16;98973.81;;;13.29;58.23
75717;BME280;64333;50.138;14.332;2022-10-20T08:21:41;98973.56;;;13.72;56.03
75717;BME280;64333;50.138;14.332;2022-10-20T08:24:07;98974.13;;;13.78;55.31
75717;BME280;64333;50.138;14.332;2022-10-20T08:26:33;98971.81;;;15.79;50.12
75717;BME280;64333;50.138;14.332;2022-10-20T08:28:58;98964.41;;;16.49;47.83
75717;BME280;64333;50.138;14.332;2022-10-20T08:31:24;98965.03;;;17.69;44.63
75717;BME280;64333;50.138;14.332;2022-10-20T08:33:50;98957.44;;;18.47;41.40
75717;BME280;64333;50.138;14.332;2022-10-20T08:36:15;98954.22;;;17.47;43.31
75717;BME280;64333;50.138;14.332;2022-10-20T08:38:41;98954.38;;;16.57;45.44
75717;BME280;64333;50.138;14.332;2022-10-20T08:41:20;98940.50;;;17.57;43.88
75717;BME280;64333;50.138;14.332;2022-10-20T08:43:48;98941.31;;;17.30;44.50
75717;BME280;64333;50.138;14.332;2022-10-20T08:46:16;98931.44;;;16.48;46.45
75717;BME280;64333;50.138;14.332;2022-10-20T08:48:43;98935.25;;;16.12;46.69
75717;BME280;64333;50.138;14.332;2022-10-20T08:51:18;98934.44;;;17.57;44.63
75717;BME280;64333;50.138;14.332;2022-10-20T08:53:45;98912.88;;;16.23;47.35
75717;BME280;64333;50.138;14.332;2022-10-20T08:56:12;98913.75;;;16.08;48.89
75717;BME280;64333;50.138;14.332;2022-10-20T08:58:44;98912.59;;;15.98;49.38
75717;BME280;64333;50.138;14.332;2022-10-20T09:01:19;98905.91;;;16.24;48.45
75717;BME280;64333;50.138;14.332;2022-10-20T09:03:48;98902.44;;;16.23;47.44
75717;BME280;64333;50.138;14.332;2022-10-20T09:06:15;98907.63;;;16.54;47.54
75717;BME280;64333;50.138;14.332;2022-10-20T09:08:42;98909.09;;;17.45;45.69
75717;BME280;64333;50.138;14.332;2022-10-20T09:11:13;98904.88;;;18.76;43.09
75717;BME280;64333;50.138;14.332;2022-10-20T09:13:40;98905.19;;;18.72;43.51
75717;BME280;64333;50.138;14.332;2022-10-20T09:16:17;98906.28;;;18.29;43.27
75717;BME280;64333;50.138;14.332;2022-10-20T09:18:45;98902.19;;;17.44;44.86
75717;BME280;64333;50.138;14.332;2022-10-20T09:21:19;98900.22;;;17.61;44.50
75717;BME280;64333;50.138;14.332;2022-10-20T09:23:49;98901.75;;;17.36;46.31
75717;BME280;64333;50.138;14.332;2022-10-20T09:26:22;98900.63;;;17.82;45.44
75717;BME280;64333;50.138;14.332;2022-10-20T09:28:50;98893.16;;;18.94;42.52
75717;BME280;64333;50.138;14.332;2022-10-20T09:33:46;98893.50;;;17.98;44.46
75717;BME280;64333;50.138;14.332;2022-10-20T09:36:13;98895.09;;;18.00;45.03
75717;BME280;64333;50.138;14.332;2022-10-20T09:38:48;98888.75;;;17.64;46.28
75717;BME280;64333;50.138;14.332;2022-10-20T09:41:28;98878.38;;;17.89;45.58
75717;BME280;64333;50.138;14.332;2022-10-20T09:44:07;98881.31;;;17.84;46.39
75717;BME280;64333;50.138;14.332;2022-10-20T09:46:43;98877.88;;;17.70;46.35
75717;BME280;64333;50.138;14.332;2022-10-20T09:51:46;98861.09;;;19.03;43.56
75717;BME280;64333;50.138;14.332;2022-10-20T09:54:17;98854.19;;;19.15;42.99
75717;BME280;64333;50.138;14.332;2022-10-20T09:56:44;98859.69;;;22.10;37.01
75717;BME280;64333;50.138;14.332;2022-10-20T10:01:59;98858.63;;;22.33;36.32
75717;BME280;64333;50.138;14.332;2022-10-20T10:04:39;98856.13;;;24.31;33.25
75717;BME280;64333;50.138;14.332;2022-10-20T10:12:50;98864.97;;;25.06;30.73
75717;BME280;64333;50.138;14.332;2022-10-20T10:17:47;98861.94;;;25.74;29.89
75717;BME280;64333;50.138;14.332;2022-10-20T10:22:39;98839.31;;;24.89;31.58
75717;BME280;64333;50.138;14.332;2022-10-20T10:25:13;98841.13;;;24.41;31.78
75717;BME280;64333;50.138;14.332;2022-10-20T10:27:56;98842.56;;;25.10;31.07
75717;BME280;64333;50.138;14.332;2022-10-20T10:30:28;98825.41;;;24.02;31.97
75717;BME280;64333;50.138;14.332;2022-10-20T10:32:55;98823.47;;;24.51;32.20
75717;BME280;64333;50.138;14.332;2022-10-20T10:35:29;98827.22;;;25.60;30.64
75717;BME280;64333;50.138;14.332;2022-10-20T10:37:56;98827.25;;;27.00;28.44
75717;BME280;64333;50.138;14.332;2022-10-20T10:48:25;98802.03;;;24.54;31.86
75717;BME280;64333;50.138;14.332;2022-10-20T10:56:45;98786.38;;;24.62;32.14
75717;BME280;64333;50.138;14.332;2022-10-20T10:59:21;98781.16;;;25.53;30.83
75717;BME280;64333;50.138;14.332;2022-10-20T11:01:56;98781.34;;;25.05;31.21
75717;BME280;64333;50.138;14.332;2022-10-20T11:07:41;98762.25;;;23.12;34.05
75717;BME280;64333;50.138;14.332;2022-10-20T11:18:14;98752.59;;;22.62;36.01
75717;BME280;64333;50.138;14.332;2022-10-20T11:20:52;98740.84;;;21.51;36.88
75717;BME280;64333;50.138;14.332;2022-10-20T11:26:38;98734.50;;;18.92;41.22
75717;BME280;64333;50.138;14.332;2022-10-20T11:29:10;98740.81;;;18.52;42.42
75717;BME280;64333;50.138;14.332;2022-10-20T11:31:58;98736.88;;;19.07;41.05
75717;BME280;64333;50.138;14.332;2022-10-20T11:37:30;98728.50;;;22.26;35.31
75717;BME280;64333;50.138;14.332;2022-10-20T11:42:36;98729.00;;;22.20;34.70
75717;BME280;64333;50.138;14.332;2022-10-20T11:45:21;98726.47;;;22.50;34.08
75717;BME280;64333;50.138;14.332;2022-10-20T11:47:55;98713.50;;;23.27;33.10
75717;BME280;64333;50.138;14.332;2022-10-20T11:50:24;98708.06;;;22.39;34.32
75717;BME280;64333;50.138;14.332;2022-10-20T11:56:02;98700.16;;;23.29;33.26
75717;BME280;64333;50.138;14.332;2022-10-20T12:11:53;98671.75;;;22.93;33.47
75717;BME280;64333;50.138;14.332;2022-10-20T12:14:40;98664.56;;;23.14;32.98
75717;BME280;64333;50.138;14.332;2022-10-20T12:17:26;98655.09;;;22.53;34.67
75717;BME280;64333;50.138;14.332;2022-10-20T12:22:51;98647.72;;;22.77;34.25
75717;BME280;64333;50.138;14.332;2022-10-20T12:28:49;98638.78;;;22.38;34.17
75717;BME280;64333;50.138;14.332;2022-10-20T12:31:01;98629.94;;;23.47;33.27
75717;BME280;64333;50.138;14.332;2022-10-20T12:39:34;98614.44;;;22.85;33.64
75717;BME280;64333;50.138;14.332;2022-10-20T12:42:02;98604.09;;;23.03;33.41
75717;BME280;64333;50.138;14.332;2022-10-20T12:44:40;98607.72;;;22.62;33.83
75717;BME280;64333;50.138;14.332;2022-10-20T12:47:07;98605.97;;;21.92;35.19
75717;BME280;64333;50.138;14.332;2022-10-20T12:49:36;98585.00;;;22.61;33.86
75717;BME280;64333;50.138;14.332;2022-10-20T12:52:05;98601.06;;;23.55;32.67
75717;BME280;64333;50.138;14.332;2022-10-20T12:54:38;98606.19;;;23.18;32.14
75717;BME280;64333;50.138;14.332;2022-10-20T12:59:50;98598.91;;;22.82;32.55
75717;BME280;64333;50.138;14.332;2022-10-20T13:05:01;98589.56;;;23.27;31.55
75717;BME280;64333;50.138;14.332;2022-10-20T13:15:37;98575.56;;;23.46;31.04
75717;BME280;64333;50.138;14.332;2022-10-20T13:23:01;98578.03;;;20.43;35.99
75717;BME280;64333;50.138;14.332;2022-10-20T13:25:35;98584.38;;;19.51;38.34
75717;BME280;64333;50.138;14.332;2022-10-20T13:28:26;98576.16;;;20.12;37.67
75717;BME280;64333;50.138;14.332;2022-10-20T13:36:45;98577.19;;;21.70;33.86
75717;BME280;64333;50.138;14.332;2022-10-20T13:42:09;98586.53;;;22.64;32.56
75717;BME280;64333;50.138;14.332;2022-10-20T13:44:58;98582.88;;;23.14;31.67
75717;BME280;64333;50.138;14.332;2022-10-20T13:50:12;98582.28;;;21.51;34.48
75717;BME280;64333;50.138;14.332;2022-10-20T13:52:44;98572.66;;;21.09;35.65
75717;BME280;64333;50.138;14.332;2022-10-20T13:58:21;98561.47;;;18.95;39.38
75717;BME280;64333;50.138;14.332;2022-10-20T14:01:05;98555.78;;;17.55;43.45
75717;BME280;64333;50.138;14.332;2022-10-20T14:03:42;98547.13;;;18.41;41.94
75717;BME280;64333;50.138;14.332;2022-10-20T14:08:55;98527.69;;;17.20;44.33
75717;BME280;64333;50.138;14.332;2022-10-20T14:11:23;98531.78;;;16.59;46.37
75717;BME280;64333;50.138;14.332;2022-10-20T14:13:49;98515.72;;;16.24;47.46
75717;BME280;64333;50.138;14.332;2022-10-20T14:16:18;98516.09;;;16.32;47.33
75717;BME280;64333;50.138;14.332;2022-10-20T14:19:05;98510.47;;;17.30;44.70
75717;BME280;64333;50.138;14.332;2022-10-20T14:24:05;98515.53;;;17.70;43.81
75717;BME280;64333;50.138;14.332;2022-10-20T14:26:36;98507.28;;;17.64;44.66
75717;BME280;64333;50.138;14.332;2022-10-20T14:29:02;98509.25;;;16.97;46.72
75717;BME280;64333;50.138;14.332;2022-10-20T14:31:28;98498.22;;;16.26;47.39
75717;BME280;64333;50.138;14.332;2022-10-20T14:33:53;98505.81;;;15.89;49.14
75717;BME280;64333;50.138;14.332;2022-10-20T14:36:24;98518.38;;;15.68;49.47
75717;BME280;64333;50.138;14.332;2022-10-20T14:38:53;98508.84;;;15.25;51.04
75717;BME280;64333;50.138;14.332;2022-10-20T14:41:33;98513.16;;;14.81;51.73
75717;BME280;64333;50.138;14.332;2022-10-20T14:44:04;98511.50;;;14.65;52.84
75717;BME280;64333;50.138;14.332;2022-10-20T14:46:32;98522.56;;;14.68;52.68
75717;BME280;64333;50.138;14.332;2022-10-20T14:48:59;98524.91;;;14.73;52.91
75717;BME280;64333;50.138;14.332;2022-10-20T14:59:34;98511.16;;;13.93;54.95
75717;BME280;64333;50.138;14.332;2022-10-20T15:02:14;98509.94;;;13.68;56.74
75717;BME280;64333;50.138;14.332;2022-10-20T15:04:44;98510.91;;;13.50;56.96
75717;BME280;64333;50.138;14.332;2022-10-20T15:07:27;98504.13;;;13.30;57.46
75717;BME280;64333;50.138;14.332;2022-10-20T15:09:58;98503.06;;;13.17;58.26
75717;BME280;64333;50.138;14.332;2022-10-20T15:12:41;98502.94;;;13.03;58.93
75717;BME280;64333;50.138;14.332;2022-10-20T15:17:47;98492.06;;;12.61;61.18
75717;BME280;64333;50.138;14.332;2022-10-20T15:23:04;98501.75;;;12.22;61.88
75717;BME280;64333;50.138;14.332;2022-10-20T15:26:09;98500.78;;;12.06;62.62
75717;BME280;64333;50.138;14.332;2022-10-20T15:30:56;98481.19;;;11.64;65.01
75717;BME280;64333;50.138;14.332;2022-10-20T15:33:22;98480.84;;;11.51;65.02
75717;BME280;64333;50.138;14.332;2022-10-20T15:35:47;98466.78;;;11.38;64.96
75717;BME280;64333;50.138;14.332;2022-10-20T15:38:14;98455.22;;;11.27;65.48